Time;durP1;ratioP1;P1;durP2;ratioP2;P2;SDS_P1;SDS_P2;PMS_P1;PMS_P2;Temp;Humidity;BMP_temperature;BMP_pressure;BME280_temperature;BME280_humidity;BME280_pressure;Samples;Min_cycle;Max_cycle;Signal;HPM_P1;HPM_P2
2022/03/11 00:00:49;;;;;;;8.52;3.35;;;;;;;-5.73;44.71;101483.19;5083204;28;20032;-61
2022/03/11 00:03:15;;;;;;;7.70;3.53;;;;;;;-5.81;45.18;101480.09;5083136;28;20032;-60
2022/03/11 00:05:42;;;;;;;6.97;3.25;;;;;;;-5.80;45.36;101478.44;5084419;28;20032;-61
2022/03/11 00:08:08;;;;;;;6.35;3.90;;;;;;;-5.77;44.23;101478.66;5091876;28;20028;-60
2022/03/11 00:10:34;;;;;;;7.38;3.28;;;;;;;-5.79;43.85;101471.00;5104713;28;20351;-60
2022/03/11 00:13:00;;;;;;;6.78;3.10;;;;;;;-5.84;43.92;101473.94;5104021;28;20047;-60
2022/03/11 00:15:26;;;;;;;6.00;3.72;;;;;;;-5.82;44.42;101477.47;5104730;28;20050;-60
2022/03/11 00:17:51;;;;;;;7.60;3.42;;;;;;;-5.80;44.77;101476.81;5104042;28;20020;-60
2022/03/11 00:20:20;;;;;;;8.93;3.17;;;;;;;-5.91;44.71;101472.63;5102950;28;20217;-60
2022/03/11 00:22:49;;;;;;;6.57;3.63;;;;;;;-5.80;43.23;101471.78;5104311;28;20058;-61
2022/03/11 00:25:16;;;;;;;5.55;3.03;;;;;;;-5.86;43.55;101455.31;5104153;28;20566;-59
2022/03/11 00:27:42;;;;;;;7.07;3.08;;;;;;;-5.70;44.15;101469.91;5104121;28;20034;-59
2022/03/11 00:30:09;;;;;;;8.30;3.00;;;;;;;-5.99;43.64;101423.31;5104203;28;20023;-59
2022/03/11 00:32:35;;;;;;;6.93;3.42;;;;;;;-5.81;43.73;101464.97;5103587;28;20028;-59
2022/03/11 00:35:00;;;;;;;7.05;3.30;;;;;;;-5.86;44.43;101461.22;5103009;28;20043;-60
2022/03/11 00:37:26;;;;;;;5.10;3.00;;;;;;;-5.84;44.87;101468.91;5103944;28;20063;-59
2022/03/11 00:39:52;;;;;;;6.07;3.47;;;;;;;-5.91;44.27;101468.47;5103919;28;20031;-60
2022/03/11 00:42:18;;;;;;;4.85;2.95;;;;;;;-5.92;43.98;101470.88;5103851;28;20063;-61
2022/03/11 00:44:44;;;;;;;5.60;3.17;;;;;;;-5.95;43.80;101455.50;5103837;28;20028;-60
2022/03/11 00:47:09;;;;;;;5.40;3.15;;;;;;;-5.97;43.82;101457.94;5103804;28;20077;-60
2022/03/11 00:49:36;;;;;;;6.57;2.72;;;;;;;-5.94;44.71;101449.72;5102594;28;20016;-62
2022/03/11 00:52:03;;;;;;;4.50;2.65;;;;;;;-6.01;43.39;101440.84;5102323;28;20308;-59
2022/03/11 00:54:28;;;;;;;6.22;2.80;;;;;;;-5.94;43.09;101448.06;5103858;28;20028;-59
2022/03/11 00:56:54;;;;;;;4.32;2.70;;;;;;;-5.97;44.59;101450.34;5102796;28;20031;-59
2022/03/11 00:59:20;;;;;;;3.78;2.30;;;;;;;-5.97;43.47;101449.50;5103075;28;20020;-60
2022/03/11 01:01:46;;;;;;;6.72;2.67;;;;;;;-6.09;43.31;101457.03;5103713;28;20047;-60
2022/03/11 01:04:12;;;;;;;5.32;2.40;;;;;;;-5.98;44.42;101455.31;5086104;28;20058;-60
2022/03/11 01:06:37;;;;;;;6.25;2.80;;;;;;;-5.99;43.79;101451.91;5083381;28;20032;-59
2022/03/11 01:09:03;;;;;;;6.43;3.00;;;;;;;-6.10;43.31;101432.56;5098325;28;20020;-59
2022/03/11 01:11:29;;;;;;;4.60;2.75;;;;;;;-6.01;45.80;101444.97;5103086;28;20039;-60
2022/03/11 01:13:56;;;;;;;3.25;2.60;;;;;;;-6.02;44.57;101438.22;5102060;28;20367;-61
2022/03/11 01:16:23;;;;;;;4.82;2.95;;;;;;;-5.97;44.83;101442.78;5103517;28;20020;-60
2022/03/11 01:18:49;;;;;;;5.45;2.70;;;;;;;-6.03;45.48;101444.00;5103485;28;20024;-60
2022/03/11 01:21:15;;;;;;;5.43;2.75;;;;;;;-6.14;46.33;101428.97;5102208;28;20059;-60
2022/03/11 01:23:41;;;;;;;8.00;3.40;;;;;;;-6.11;47.33;101445.97;5103225;28;20359;-59
2022/03/11 01:26:06;;;;;;;5.10;3.25;;;;;;;-6.28;45.50;101429.59;5102326;28;20035;-61
2022/03/11 01:28:32;;;;;;;4.07;2.55;;;;;;;-6.32;45.13;101430.13;5101665;28;20024;-59
2022/03/11 01:30:58;;;;;;;7.28;3.35;;;;;;;-6.11;45.33;101445.97;5103106;28;20063;-60
2022/03/11 01:33:24;;;;;;;6.43;3.22;;;;;;;-6.11;44.44;101451.88;5102743;28;20024;-58
2022/03/11 01:35:49;;;;;;;5.30;3.60;;;;;;;-6.08;44.44;101446.19;5103170;28;20054;-59
2022/03/11 01:38:15;;;;;;;7.18;4.25;;;;;;;-6.22;45.34;101434.22;5102926;28;20026;-60
2022/03/11 01:40:41;;;;;;;8.82;5.07;;;;;;;-6.17;46.68;101441.34;5103185;28;20086;-58
2022/03/11 01:43:17;;;;;;;8.20;4.80;;;;;;;-6.54;44.71;101373.09;5103056;28;20295;-59
2022/03/11 01:45:43;;;;;;;9.13;5.35;;;;;;;-6.27;45.51;101442.31;5103087;28;20225;-62
2022/03/11 01:48:10;;;;;;;11.13;5.38;;;;;;;-6.21;45.63;101430.91;5088993;28;20020;-60
2022/03/11 01:50:39;;;;;;;13.57;6.78;;;;;;;-6.24;45.53;101436.63;5103026;28;20031;-58
2022/03/11 01:53:08;;;;;;;10.63;6.55;;;;;;;-6.56;44.57;101372.06;5103052;28;20273;-59
2022/03/11 01:55:35;;;;;;;13.57;7.22;;;;;;;-6.17;44.15;101433.78;5101793;28;20031;-59
2022/03/11 01:58:01;;;;;;;14.00;7.38;;;;;;;-6.17;44.32;101441.34;5102021;28;20031;-60
2022/03/11 02:00:26;;;;;;;16.02;8.05;;;;;;;-6.25;45.84;101430.69;5101455;28;20020;-59
2022/03/11 02:02:52;;;;;;;15.18;8.38;;;;;;;-6.19;45.02;101434.44;5103124;28;20027;-59
2022/03/11 02:05:18;;;;;;;18.63;8.38;;;;;;;-6.24;45.18;101429.06;5101320;28;20016;-58
2022/03/11 02:07:43;;;;;;;16.63;8.77;;;;;;;-6.20;46.17;101425.97;5102886;28;20020;-60
2022/03/11 02:10:09;;;;;;;13.88;7.90;;;;;;;-6.21;45.93;101430.91;5104239;28;20078;-59
2022/03/11 02:12:35;;;;;;;14.05;8.02;;;;;;;-6.32;45.71;101420.91;5106614;28;20032;-59
2022/03/11 02:15:08;;;;;;;17.02;7.70;;;;;;;-6.58;45.56;101366.06;5105679;28;20054;-58
2022/03/11 02:17:34;;;;;;;13.70;7.03;;;;;;;-6.16;44.93;101427.09;5106795;28;20089;-58
2022/03/11 02:19:59;;;;;;;10.02;5.97;;;;;;;-6.24;45.38;101426.53;5106633;28;20028;-60
2022/03/11 02:22:26;;;;;;;13.48;6.57;;;;;;;-6.41;45.58;101412.69;5106624;28;20034;-62
2022/03/11 02:24:52;;;;;;;9.70;5.93;;;;;;;-6.30;46.30;101423.53;5106594;28;20324;-60
2022/03/11 02:27:19;;;;;;;10.52;5.95;;;;;;;-6.24;46.65;101429.06;5106474;28;20027;-60
2022/03/11 02:29:44;;;;;;;11.25;4.43;;;;;;;-6.26;46.39;101438.13;5106380;28;20202;-60
2022/03/11 02:32:10;;;;;;;8.02;4.38;;;;;;;-6.28;46.64;101427.06;5088226;28;20032;-60
2022/03/11 02:34:40;;;;;;;8.07;3.88;;;;;;;-6.34;46.32;101432.53;5106536;28;20028;-61
2022/03/11 02:37:06;;;;;;;6.50;3.70;;;;;;;-6.38;46.76;101424.59;5106319;28;20090;-60
2022/03/11 02:39:31;;;;;;;5.82;2.95;;;;;;;-6.43;45.38;101417.59;5106411;28;20105;-61
2022/03/11 02:41:58;;;;;;;5.97;3.00;;;;;;;-6.44;46.12;101430.97;5106300;28;20024;-61
2022/03/11 02:44:24;;;;;;;6.50;3.20;;;;;;;-6.37;45.65;101421.31;5106121;28;20069;-60
2022/03/11 02:46:51;;;;;;;5.85;2.88;;;;;;;-6.39;45.45;101420.34;5105937;28;20020;-61
2022/03/11 02:49:16;;;;;;;6.43;3.17;;;;;;;-6.47;45.64;101408.06;5106136;28;20046;-60
2022/03/11 02:51:42;;;;;;;5.72;3.22;;;;;;;-6.48;45.83;101426.44;5106041;28;20305;-60
2022/03/11 02:54:08;;;;;;;5.50;2.53;;;;;;;-6.56;46.67;101422.47;5105925;28;20587;-60
2022/03/11 02:56:33;;;;;;;6.13;2.60;;;;;;;-6.55;47.05;101415.81;5106111;28;20024;-61
2022/03/11 02:58:59;;;;;;;4.93;2.90;;;;;;;-6.52;47.23;101413.50;5105942;28;20024;-61
2022/03/11 03:01:25;;;;;;;4.43;2.83;;;;;;;-6.49;47.09;101424.69;5105649;28;20340;-63
2022/03/11 03:03:50;;;;;;;3.17;2.50;;;;;;;-6.49;46.65;101414.59;5100118;28;20021;-60
2022/03/11 03:06:16;;;;;;;6.13;4.13;;;;;;;-6.46;46.93;101411.44;5085570;28;20054;-60
2022/03/11 03:08:42;;;;;;;3.83;2.65;;;;;;;-6.56;47.56;101394.75;5097715;28;20020;-60
2022/03/11 03:11:07;;;;;;;4.50;2.95;;;;;;;-6.46;46.49;101407.25;5105314;28;20090;-61
2022/03/11 03:13:34;;;;;;;3.88;2.47;;;;;;;-6.44;47.20;101408.28;5105050;28;20054;-61
2022/03/11 03:15:59;;;;;;;7.20;2.95;;;;;;;-6.53;46.19;101394.97;5105337;28;20047;-61
2022/03/11 03:18:25;;;;;;;6.03;3.38;;;;;;;-6.55;47.27;101388.94;5104365;28;20023;-61
2022/03/11 03:20:51;;;;;;;6.72;2.88;;;;;;;-6.54;46.68;101389.81;5105166;28;20096;-59
2022/03/11 03:23:17;;;;;;;6.05;2.83;;;;;;;-6.49;47.47;101398.63;5105381;28;20220;-60
2022/03/11 03:25:42;;;;;;;4.93;3.00;;;;;;;-6.53;47.12;101397.50;5105396;28;20028;-60
2022/03/11 03:28:08;;;;;;;8.55;3.00;;;;;;;-6.59;47.17;101394.53;5104170;28;20058;-60
2022/03/11 03:30:34;;;;;;;5.88;3.00;;;;;;;-6.54;46.39;101390.72;5105326;28;20090;-61
2022/03/11 03:32:59;;;;;;;4.50;2.42;;;;;;;-6.57;46.20;101392.97;5105282;28;20024;-59
2022/03/11 03:35:25;;;;;;;4.85;2.60;;;;;;;-6.50;47.32;101392.72;5105084;28;20031;-61
2022/03/11 03:37:51;;;;;;;6.15;2.72;;;;;;;-6.51;46.75;101397.59;5105232;28;20036;-59
2022/03/11 03:40:16;;;;;;;3.72;2.67;;;;;;;-6.59;47.88;101390.34;5104996;28;20375;-61
2022/03/11 03:42:46;;;;;;;6.97;2.72;;;;;;;-6.57;46.15;101392.13;5104856;28;20036;-59
2022/03/11 03:45:12;;;;;;;8.30;3.22;;;;;;;-6.59;46.95;101394.53;5105010;28;20024;-59
2022/03/11 03:47:37;;;;;;;5.85;2.92;;;;;;;-6.70;47.06;101365.13;5104686;28;20190;-60
2022/03/11 03:50:03;;;;;;;6.50;2.97;;;;;;;-6.62;47.06;101380.03;5104856;28;20020;-60
2022/03/11 03:52:29;;;;;;;4.80;2.50;;;;;;;-6.48;46.55;101383.59;5104851;28;20427;-59
2022/03/11 03:54:55;;;;;;;9.18;2.85;;;;;;;-6.47;46.56;101381.94;5104712;28;20023;-59
2022/03/11 03:57:21;;;;;;;5.97;3.00;;;;;;;-6.48;46.23;101375.19;5104701;28;20020;-58
2022/03/11 03:59:47;;;;;;;8.85;3.25;;;;;;;-6.58;45.97;101363.53;5104685;28;20041;-59
2022/03/11 04:02:12;;;;;;;4.50;2.70;;;;;;;-6.54;46.25;101373.09;5103332;28;20016;-60
2022/03/11 04:04:38;;;;;;;7.10;3.22;;;;;;;-6.57;46.97;101380.38;5104291;28;20031;-59
2022/03/11 04:07:03;;;;;;;3.97;2.47;;;;;;;-6.60;47.99;101372.59;5104093;28;20016;-59
2022/03/11 04:09:29;;;;;;;6.72;3.25;;;;;;;-6.56;46.95;101377.09;5104118;28;20028;-60
2022/03/11 04:11:54;;;;;;;7.03;3.17;;;;;;;-6.52;46.29;101369.03;5103947;28;20275;-60
2022/03/11 04:14:20;;;;;;;7.07;3.10;;;;;;;-6.49;47.37;101360.81;5104241;28;20016;-60
2022/03/11 04:16:46;;;;;;;5.72;3.30;;;;;;;-6.76;47.19;101308.47;5102954;28;20028;-60
2022/03/11 04:19:11;;;;;;;5.50;2.60;;;;;;;-6.44;46.43;101349.41;5103879;28;20024;-61
2022/03/11 04:21:37;;;;;;;5.65;3.00;;;;;;;-6.43;46.84;101352.09;5104171;28;20028;-59
2022/03/11 04:24:04;;;;;;;5.63;3.00;;;;;;;-6.40;46.32;101355.56;5103889;28;20028;-60
2022/03/11 04:26:30;;;;;;;5.30;3.38;;;;;;;-6.38;46.92;101351.50;5104087;28;20023;-60
2022/03/11 04:28:55;;;;;;;6.25;2.95;;;;;;;-6.33;46.34;101357.78;5119930;28;20107;-60
2022/03/11 04:31:22;;;;;;;3.47;2.60;;;;;;;-6.26;46.96;101344.88;5102761;28;20324;-61
2022/03/11 04:33:47;;;;;;;6.05;3.63;;;;;;;-6.23;45.39;101347.59;5103813;28;20053;-60
2022/03/11 04:36:13;;;;;;;4.90;3.20;;;;;;;-6.23;48.11;101350.13;5103692;28;20020;-60
2022/03/11 04:38:39;;;;;;;7.07;3.08;;;;;;;-6.28;45.50;101342.22;5102575;28;20123;-61
2022/03/11 04:41:05;;;;;;;4.43;2.58;;;;;;;-6.24;48.42;101345.88;5102085;28;20259;-60
2022/03/11 04:43:31;;;;;;;4.65;2.88;;;;;;;-6.14;48.12;101353.34;5103741;28;20309;-60
2022/03/11 04:45:57;;;;;;;8.23;2.70;;;;;;;-6.11;46.63;101342.59;5103778;28;20024;-58
2022/03/11 04:48:23;;;;;;;4.78;2.92;;;;;;;-5.98;47.24;101347.75;5102878;28;20030;-58
2022/03/11 04:50:48;;;;;;;6.28;3.30;;;;;;;-6.00;46.18;101351.81;5103384;28;20023;-59
2022/03/11 04:53:14;;;;;;;6.35;3.20;;;;;;;-6.04;47.18;101347.31;5103157;28;20321;-59
2022/03/11 04:55:39;;;;;;;6.13;3.33;;;;;;;-5.98;46.24;101344.38;5085319;28;20031;-59
2022/03/11 04:58:05;;;;;;;5.75;2.88;;;;;;;-6.04;46.32;101352.34;5102982;28;20031;-59
2022/03/11 05:00:31;;;;;;;5.80;2.90;;;;;;;-6.00;45.69;101341.72;5103269;28;20032;-60
2022/03/11 05:02:58;;;;;;;6.80;3.03;;;;;;;-6.00;46.10;101344.25;5101600;28;20020;-61
2022/03/11 05:05:25;;;;;;;8.20;2.72;;;;;;;-5.88;45.30;101341.69;5102748;28;20073;-60
2022/03/11 05:07:51;;;;;;;10.55;3.15;;;;;;;-5.80;45.06;101339.72;5103218;28;20091;-59
2022/03/11 05:10:16;;;;;;;11.80;3.47;;;;;;;-5.70;45.71;101341.25;5103006;28;20044;-59
2022/03/11 05:12:43;;;;;;;7.72;3.03;;;;;;;-5.64;46.75;101335.00;5102826;28;20028;-59
2022/03/11 05:15:10;;;;;;;4.03;2.35;;;;;;;-5.59;45.50;101343.75;5102919;28;20020;-59
2022/03/11 05:17:36;;;;;;;7.32;3.28;;;;;;;-5.74;46.94;101313.28;5103056;28;20208;-58
2022/03/11 05:20:05;;;;;;;4.07;2.72;;;;;;;-5.78;45.36;101285.22;5103023;28;20034;-60
2022/03/11 05:22:31;;;;;;;4.95;2.80;;;;;;;-5.45;45.15;101326.19;5103195;28;20024;-59
2022/03/11 05:24:57;;;;;;;8.05;3.50;;;;;;;-5.43;43.92;101333.09;5118974;28;20031;-60
2022/03/11 05:27:23;;;;;;;11.82;2.78;;;;;;;-5.40;46.20;101334.94;5103151;28;20016;-59
2022/03/11 05:29:48;;;;;;;4.53;2.95;;;;;;;-5.40;44.12;101335.84;5102372;28;20087;-60
2022/03/11 05:32:15;;;;;;;4.13;2.63;;;;;;;-5.30;45.33;101331.41;5101861;28;20016;-59
2022/03/11 05:34:42;;;;;;;12.23;3.40;;;;;;;-5.25;44.54;101320.00;5118821;28;20025;-60
2022/03/11 05:37:09;;;;;;;6.85;2.70;;;;;;;-5.14;43.55;101331.72;5101875;28;20229;-60
2022/03/11 05:39:36;;;;;;;4.45;2.78;;;;;;;-5.21;42.74;101327.88;5102950;28;20024;-60
2022/03/11 05:42:02;;;;;;;6.07;3.03;;;;;;;-5.20;42.21;101323.72;5103176;28;20020;-58
2022/03/11 05:44:28;;;;;;;8.00;3.42;;;;;;;-5.13;43.59;101307.31;5106379;28;20122;-59
2022/03/11 05:46:55;;;;;;;6.55;3.28;;;;;;;-5.08;41.63;101321.16;5106932;28;20059;-58
2022/03/11 05:49:21;;;;;;;5.90;3.10;;;;;;;-5.08;42.19;101318.63;5106238;28;20027;-61
2022/03/11 05:51:46;;;;;;;6.03;3.10;;;;;;;-4.95;43.32;101305.19;5106636;28;20028;-59
2022/03/11 05:54:12;;;;;;;6.68;3.45;;;;;;;-4.90;44.49;101303.84;5106684;28;20062;-60
2022/03/11 05:56:38;;;;;;;6.60;3.00;;;;;;;-4.83;42.96;101300.06;5106941;28;20036;-59
2022/03/11 05:59:04;;;;;;;7.22;3.10;;;;;;;-4.86;43.16;101308.31;5106849;28;20043;-59
2022/03/11 06:01:34;;;;;;;7.10;2.80;;;;;;;-4.74;41.98;101306.59;5106486;28;20024;-59
2022/03/11 06:04:01;;;;;;;10.43;4.43;;;;;;;-4.65;42.16;101305.47;5105161;28;20077;-58
2022/03/11 06:06:27;;;;;;;7.85;3.42;;;;;;;-4.59;41.22;101301.72;5103733;28;20036;-59
2022/03/11 06:08:53;;;;;;;7.13;3.03;;;;;;;-4.46;42.58;101305.91;5100297;28;20056;-61
2022/03/11 06:11:18;;;;;;;7.30;3.00;;;;;;;-4.35;41.80;101296.47;5106334;28;20350;-59
2022/03/11 06:13:44;;;;;;;6.07;3.35;;;;;;;-4.28;41.57;101296.09;5105764;28;20043;-59
2022/03/11 06:16:10;;;;;;;8.75;3.35;;;;;;;-4.17;42.37;101291.75;5105460;28;20020;-60
2022/03/11 06:18:35;;;;;;;10.75;3.30;;;;;;;-4.08;42.23;101294.84;5106559;28;20058;-59
2022/03/11 06:21:01;;;;;;;7.43;3.53;;;;;;;-4.08;40.58;101288.94;5106269;28;20024;-59
2022/03/11 06:23:26;;;;;;;10.07;3.63;;;;;;;-3.92;41.81;101294.19;5104274;28;20023;-58
2022/03/11 06:25:52;;;;;;;6.68;3.50;;;;;;;-3.91;41.75;101290.84;5107120;28;20027;-59
2022/03/11 06:28:18;;;;;;;9.95;3.60;;;;;;;-3.76;42.65;101288.44;5105655;28;20032;-59
2022/03/11 06:30:46;;;;;;;8.45;3.72;;;;;;;-3.67;42.34;101271.28;5121478;28;20027;-59
2022/03/11 06:33:12;;;;;;;6.85;3.30;;;;;;;-3.29;41.31;101276.94;5105704;28;20082;-59
2022/03/11 06:35:37;;;;;;;6.70;4.00;;;;;;;-2.96;40.95;101270.47;5105453;28;20317;-59
2022/03/11 06:38:03;;;;;;;10.05;4.20;;;;;;;-2.63;38.84;101255.47;5105465;28;20032;-59
2022/03/11 06:40:29;;;;;;;14.25;4.30;;;;;;;-1.84;38.37;101264.94;5105720;28;20043;-58
2022/03/11 06:42:55;;;;;;;11.57;4.43;;;;;;;-1.47;38.70;101248.22;5105440;28;20036;-59
2022/03/11 06:45:21;;;;;;;10.85;3.70;;;;;;;-1.14;37.92;101259.31;5105703;28;20084;-59
2022/03/11 06:47:48;;;;;;;29.65;6.20;;;;;;;-0.59;36.45;101256.09;5105233;28;20024;-58
2022/03/11 06:50:15;;;;;;;20.05;4.38;;;;;;;0.27;35.97;101253.34;5105474;28;20270;-59
2022/03/11 06:52:41;;;;;;;10.45;4.28;;;;;;;0.77;34.59;101229.28;5105436;28;20059;-59
2022/03/11 06:55:07;;;;;;;12.70;4.72;;;;;;;1.29;32.06;101253.56;5103182;28;20335;-59
2022/03/11 06:57:34;;;;;;;50.05;23.48;;;;;;;1.69;32.27;101251.78;5104973;28;20035;-60
2022/03/11 07:00:00;;;;;;;13.18;5.03;;;;;;;2.61;31.53;101244.22;5104892;28;20023;-59
2022/03/11 07:02:26;;;;;;;11.70;4.00;;;;;;;3.15;30.09;101240.09;5103552;28;20027;-60
2022/03/11 07:04:52;;;;;;;11.43;3.70;;;;;;;2.61;29.19;101233.97;5102992;28;20020;-59
2022/03/11 07:07:18;;;;;;;10.57;4.13;;;;;;;2.91;29.20;101238.44;5102435;28;20039;-60
2022/03/11 07:09:43;;;;;;;11.00;4.20;;;;;;;3.71;29.84;101243.66;5102180;28;20078;-60
2022/03/11 07:12:09;;;;;;;12.85;4.75;;;;;;;4.07;28.35;101234.50;5103166;28;20039;-60
2022/03/11 07:14:36;;;;;;;16.58;5.10;;;;;;;4.09;29.46;101225.16;5102838;28;20073;-60
2022/03/11 07:17:06;;;;;;;12.07;5.03;;;;;;;4.77;27.82;101221.97;5103371;28;20022;-60
2022/03/11 07:19:32;;;;;;;16.08;5.57;;;;;;;5.46;28.05;101221.19;5104668;28;20357;-60
2022/03/11 07:21:59;;;;;;;14.68;5.57;;;;;;;5.22;28.80;101220.59;5088061;28;20037;-60
2022/03/11 07:24:26;;;;;;;19.63;6.15;;;;;;;5.34;28.02;101220.88;5084461;28;20070;-60
2022/03/11 07:26:51;;;;;;;15.07;6.32;;;;;;;5.00;27.99;101202.03;5100643;28;20069;-60
2022/03/11 07:29:17;;;;;;;20.35;9.23;;;;;;;5.41;27.73;101212.50;5104731;28;20057;-60
2022/03/11 07:31:43;;;;;;;14.27;5.70;;;;;;;5.40;27.36;101209.88;5104150;28;20020;-61
2022/03/11 07:34:08;;;;;;;12.02;5.05;;;;;;;5.83;26.20;101205.78;5104635;28;20065;-61
2022/03/11 07:36:34;;;;;;;13.30;5.00;;;;;;;6.08;26.38;101196.06;5104639;28;20328;-60
2022/03/11 07:39:07;;;;;;;7.72;4.65;;;;;;;6.76;25.40;101197.44;5104323;28;20030;-60
2022/03/11 07:41:34;;;;;;;8.50;4.82;;;;;;;6.48;24.66;101202.03;5103334;28;20220;-59
2022/03/11 07:44:00;;;;;;;10.57;4.32;;;;;;;6.63;24.93;101198.91;5104443;28;20023;-60
2022/03/11 07:46:27;;;;;;;7.22;4.20;;;;;;;7.40;25.19;101188.22;5104396;28;20026;-60
2022/03/11 07:48:56;;;;;;;5.28;3.03;;;;;;;7.18;24.78;101199.91;5104125;28;20352;-59
2022/03/11 07:51:24;;;;;;;15.70;4.40;;;;;;;5.77;25.49;101190.19;5104215;28;20073;-61
2022/03/11 07:53:50;;;;;;;19.10;4.55;;;;;;;6.61;25.65;101190.28;5104111;28;20111;-61
2022/03/11 07:56:15;;;;;;;9.82;3.90;;;;;;;6.77;24.39;101184.59;5104113;28;20316;-61
2022/03/11 07:58:42;;;;;;;20.25;11.75;;;;;;;6.65;24.74;101192.06;5104208;28;20032;-59
2022/03/11 08:01:12;;;;;;;8.40;4.18;;;;;;;6.22;25.11;101180.06;5103900;28;20043;-59
2022/03/11 08:03:39;;;;;;;8.85;3.55;;;;;;;6.22;25.60;101182.63;5103645;28;20028;-60
2022/03/11 08:06:05;;;;;;;6.95;3.33;;;;;;;6.01;26.17;101172.78;5103953;28;20043;-61
2022/03/11 08:08:31;;;;;;;9.93;4.07;;;;;;;5.58;25.95;101164.06;5102386;28;20023;-60
2022/03/11 08:10:57;;;;;;;10.60;4.05;;;;;;;5.38;26.79;101167.91;5103743;28;20040;-60
2022/03/11 08:13:23;;;;;;;11.38;4.25;;;;;;;4.92;26.76;101155.66;5105092;28;20028;-59
2022/03/11 08:15:49;;;;;;;11.43;4.28;;;;;;;4.54;25.94;101157.22;5104061;28;20032;-59
2022/03/11 08:18:15;;;;;;;60.78;29.08;;;;;;;4.54;26.20;101165.75;5104249;28;20038;-60
2022/03/11 08:20:41;;;;;;;9.63;4.22;;;;;;;4.61;26.75;101159.97;5104314;28;20134;-60
2022/03/11 08:23:08;;;;;;;11.40;4.38;;;;;;;4.65;26.97;101154.09;5101605;28;20052;-60
2022/03/11 08:25:35;;;;;;;13.95;5.20;;;;;;;4.99;26.18;101166.94;5104123;28;20093;-59
2022/03/11 08:28:01;;;;;;;11.25;5.35;;;;;;;4.94;26.87;101169.38;5103989;28;20077;-60
2022/03/11 08:30:27;;;;;;;13.63;5.13;;;;;;;4.84;26.31;101146.88;5103493;28;20020;-60
2022/03/11 08:32:53;;;;;;;9.82;4.88;;;;;;;5.22;27.74;101161.53;5103710;28;20137;-59
2022/03/11 08:35:19;;;;;;;9.65;4.00;;;;;;;5.58;26.98;101155.50;5103782;28;20111;-60
2022/03/11 08:37:46;;;;;;;9.18;4.53;;;;;;;5.64;27.58;101153.97;5103960;28;20054;-57
2022/03/11 08:40:13;;;;;;;11.68;4.25;;;;;;;5.63;25.91;101143.63;5103943;28;20035;-60
2022/03/11 08:42:39;;;;;;;7.70;4.18;;;;;;;5.33;27.04;101139.50;5103880;28;20027;-60
2022/03/11 08:45:07;;;;;;;14.15;4.80;;;;;;;5.60;25.56;101141.88;5103899;28;20027;-60
2022/03/11 08:47:33;;;;;;;15.68;6.38;;;;;;;5.89;26.03;101139.06;5095679;28;20025;-60
2022/03/11 08:49:58;;;;;;;13.43;5.60;;;;;;;6.19;25.49;101125.13;5083353;28;20039;-59
2022/03/11 08:52:28;;;;;;;13.43;5.60;;;;;;;6.05;24.90;101125.72;5087770;28;20101;-60
2022/03/11 08:54:54;;;;;;;11.07;5.22;;;;;;;6.73;25.16;101131.31;5097544;28;20221;-60
2022/03/11 08:57:20;;;;;;;12.65;5.45;;;;;;;6.25;25.90;101132.09;5083442;28;20035;-59
2022/03/11 08:59:45;;;;;;;16.23;4.90;;;;;;;6.31;25.10;101121.94;5083227;28;20037;-60
2022/03/11 09:02:13;;;;;;;9.77;5.60;;;;;;;6.91;24.95;101128.16;5099632;28;20024;-59
2022/03/11 09:04:39;;;;;;;12.90;5.45;;;;;;;6.48;24.67;101129.97;5103194;28;20028;-61
2022/03/11 09:07:05;;;;;;;8.07;4.38;;;;;;;6.98;24.92;101129.13;5103579;28;20039;-59
2022/03/11 09:09:32;;;;;;;16.55;5.13;;;;;;;7.28;25.90;101117.59;5103372;28;20024;-59
2022/03/11 09:12:02;;;;;;;10.55;4.53;;;;;;;7.12;25.00;101119.91;5103288;28;20036;-59
2022/03/11 09:14:27;;;;;;;11.48;5.38;;;;;;;7.06;24.09;101117.25;5102310;28;20058;-60
2022/03/11 09:16:53;;;;;;;11.45;4.50;;;;;;;7.19;24.01;101113.16;5103377;28;20024;-60
2022/03/11 09:19:19;;;;;;;13.68;4.97;;;;;;;6.72;25.13;101107.25;5101813;28;20023;-60
2022/03/11 09:21:44;;;;;;;12.98;5.10;;;;;;;6.25;25.30;101108.97;5103283;28;20032;-59
2022/03/11 09:24:10;;;;;;;10.98;3.90;;;;;;;6.45;23.40;101107.63;5103079;28;20027;-58
2022/03/11 09:26:35;;;;;;;7.70;3.53;;;;;;;5.92;23.62;101098.00;5103070;28;20209;-60
2022/03/11 09:29:01;;;;;;;8.15;3.92;;;;;;;5.53;22.69;101092.03;5103245;28;20190;-59
2022/03/11 09:31:27;;;;;;;9.93;3.83;;;;;;;5.75;25.05;101082.22;5103319;28;20066;-60
2022/03/11 09:33:52;;;;;;;12.45;4.30;;;;;;;5.68;25.07;101081.19;5103361;28;20035;-59
2022/03/11 09:36:18;;;;;;;12.13;4.40;;;;;;;5.30;25.13;101080.38;5101813;28;20036;-61
2022/03/11 09:38:44;;;;;;;12.98;4.18;;;;;;;5.21;25.78;101085.31;5103146;28;20024;-60
2022/03/11 09:41:10;;;;;;;10.00;4.22;;;;;;;5.41;25.78;101078.03;5101997;28;20230;-59
2022/03/11 09:43:38;;;;;;;11.77;4.88;;;;;;;4.88;27.16;101087.09;5103159;28;20049;-60
2022/03/11 09:46:04;;;;;;;7.95;3.92;;;;;;;4.46;26.21;101070.66;5103085;28;20024;-59
2022/03/11 09:48:32;;;;;;;7.40;4.10;;;;;;;3.82;25.54;101077.47;5103155;28;20023;-60
2022/03/11 09:51:01;;;;;;;11.25;4.60;;;;;;;3.72;27.68;101076.31;5103024;28;20039;-60
2022/03/11 09:53:28;;;;;;;8.70;3.95;;;;;;;3.47;27.35;101056.78;5103006;28;20024;-61
2022/03/11 09:55:54;;;;;;;8.57;4.30;;;;;;;3.22;26.49;101071.41;5095309;28;20020;-59
2022/03/11 09:58:20;;;;;;;10.15;3.75;;;;;;;3.05;26.25;101063.22;5102060;28;20058;-59
2022/03/11 10:00:47;;;;;;;5.55;3.45;;;;;;;2.87;27.97;101004.63;5102711;28;20335;-59
2022/03/11 10:03:13;;;;;;;8.48;4.10;;;;;;;3.09;27.15;101059.94;5103051;28;20347;-59
2022/03/11 10:05:48;;;;;;;8.60;4.00;;;;;;;3.12;28.49;101061.69;5082985;28;20025;-60
2022/03/11 10:08:14;;;;;;;9.80;4.85;;;;;;;3.13;28.58;101042.97;5092197;28;20020;-60
2022/03/11 10:10:40;;;;;;;13.45;4.80;;;;;;;3.10;28.52;101032.63;5102959;28;20313;-59
2022/03/11 10:13:08;;;;;;;9.55;4.05;;;;;;;3.02;28.43;101034.09;5102825;28;20065;-60
2022/03/11 10:15:34;;;;;;;9.48;4.10;;;;;;;3.11;27.64;101050.59;5102840;28;20035;-60
2022/03/11 10:18:02;;;;;;;10.57;4.20;;;;;;;2.85;27.26;101039.56;5102717;28;20024;-60
2022/03/11 10:20:30;;;;;;;19.15;5.55;;;;;;;2.56;28.90;100992.56;5118556;28;20028;-60
2022/03/11 10:22:57;;;;;;;5.60;3.70;;;;;;;3.07;29.24;101035.97;5102860;28;20336;-59
2022/03/11 10:25:25;;;;;;;12.43;4.53;;;;;;;3.00;29.59;101028.06;5102572;28;20028;-59
2022/03/11 10:28:08;;;;;;;11.05;4.13;;;;;;;2.92;27.39;101004.78;5102520;28;20028;-59
2022/03/11 10:30:37;;;;;;;9.82;3.80;;;;;;;2.68;27.58;100966.50;5104692;28;20138;-59
2022/03/11 10:33:11;;;;;;;9.20;4.03;;;;;;;2.78;26.64;101026.50;5106346;28;20027;-59
2022/03/11 10:35:49;;;;;;;10.40;3.80;;;;;;;2.70;28.05;101021.16;5106452;28;20095;-58
2022/03/11 10:38:17;;;;;;;14.52;4.05;;;;;;;2.41;28.82;100964.81;5106165;28;20194;-58
2022/03/11 10:40:53;;;;;;;7.53;3.30;;;;;;;2.45;27.49;100942.75;5106130;28;20035;-59
2022/03/11 10:43:21;;;;;;;9.38;3.30;;;;;;;2.73;28.68;100995.66;5106434;28;20040;-59
2022/03/11 10:45:53;;;;;;;9.38;3.33;;;;;;;2.67;28.00;100996.34;5106051;28;20297;-58
2022/03/11 10:48:40;;;;;;;9.40;3.60;;;;;;;2.50;27.96;100929.31;5105917;28;20091;-58
2022/03/11 10:51:20;;;;;;;9.77;3.38;;;;;;;2.45;29.66;100937.66;5085609;28;20062;-58
2022/03/11 10:53:51;;;;;;;11.00;3.63;;;;;;;2.71;29.52;101012.66;5101561;28;20019;-58
2022/03/11 10:56:26;;;;;;;23.83;11.50;;;;;;;2.59;29.20;100993.53;5105788;28;20036;-59
2022/03/11 10:58:52;;;;;;;9.85;4.85;;;;;;;2.51;28.60;100982.19;5105702;28;20024;-58
2022/03/11 11:01:41;;;;;;;9.93;3.97;;;;;;;2.68;27.83;100982.72;5105762;28;20381;-58
2022/03/11 11:04:08;;;;;;;11.60;3.97;;;;;;;2.42;29.77;100917.97;5105745;28;20047;-58
2022/03/11 11:06:35;;;;;;;7.03;4.13;;;;;;;2.76;30.16;100971.06;5105645;28;20325;-59
2022/03/11 11:09:01;;;;;;;12.15;4.78;;;;;;;2.76;28.76;100947.16;5104201;28;20332;-59
2022/03/11 11:11:28;;;;;;;11.65;4.45;;;;;;;2.79;29.10;100951.50;5105207;28;20048;-58
2022/03/11 11:13:54;;;;;;;8.43;5.25;;;;;;;2.73;29.25;100945.38;5102976;28;20047;-58
2022/03/11 11:16:24;;;;;;;11.75;4.85;;;;;;;2.37;30.29;100894.81;5104259;28;20036;-58
2022/03/11 11:18:52;;;;;;;9.13;3.78;;;;;;;2.82;30.08;100944.81;5105248;28;20036;-59
2022/03/11 11:21:24;;;;;;;14.52;4.32;;;;;;;2.69;31.49;100935.84;5105454;28;20095;-59
2022/03/11 11:23:57;;;;;;;9.48;4.05;;;;;;;2.69;30.91;100933.31;5105550;28;20040;-58